sensor_id;sensor_type;location;lat;lon;timestamp;temperature;humidity
18794;DHT22;29610;49.022;12.114;2023-04-24T00:01:16;10.80;99.90
18794;DHT22;29610;49.022;12.114;2023-04-24T00:04:06;10.70;99.90
18794;DHT22;29610;49.022;12.114;2023-04-24T00:07:00;10.70;99.90
18794;DHT22;29610;49.022;12.114;2023-04-24T00:09:48;10.70;99.90
18794;DHT22;29610;49.022;12.114;2023-04-24T00:12:38;10.70;99.90
18794;DHT22;29610;49.022;12.114;2023-04-24T00:15:27;10.70;99.90
18794;DHT22;29610;49.022;12.114;2023-04-24T00:18:16;10.70;99.90
18794;DHT22;29610;49.022;12.114;2023-04-24T00:21:05;10.80;99.90
18794;DHT22;29610;49.022;12.114;2023-04-24T00:23:55;10.70;99.90
18794;DHT22;29610;49.022;12.114;2023-04-24T00:26:44;10.70;99.90
18794;DHT22;29610;49.022;12.114;2023-04-24T00:29:33;10.70;99.90
18794;DHT22;29610;49.022;12.114;2023-04-24T00:32:22;10.70;99.90
18794;DHT22;29610;49.022;12.114;2023-04-24T00:35:11;10.70;99.90
18794;DHT22;29610;49.022;12.114;2023-04-24T00:38:00;10.70;99.90
18794;DHT22;29610;49.022;12.114;2023-04-24T00:40:50;10.70;99.90
18794;DHT22;29610;49.022;12.114;2023-04-24T00:43:39;10.60;99.90
18794;DHT22;29610;49.022;12.114;2023-04-24T00:46:29;10.60;99.90
18794;DHT22;29610;49.022;12.114;2023-04-24T00:49:19;10.60;99.90
18794;DHT22;29610;49.022;12.114;2023-04-24T00:52:10;10.60;99.90
18794;DHT22;29610;49.022;12.114;2023-04-24T00:54:59;10.60;99.90
18794;DHT22;29610;49.022;12.114;2023-04-24T00:57:50;10.60;99.90
18794;DHT22;29610;49.022;12.114;2023-04-24T01:00:40;10.60;99.90
18794;DHT22;29610;49.022;12.114;2023-04-24T01:03:30;10.60;99.90
18794;DHT22;29610;49.022;12.114;2023-04-24T01:06:20;10.70;99.90
18794;DHT22;29610;49.022;12.114;2023-04-24T01:09:11;10.70;99.90
18794;DHT22;29610;49.022;12.114;2023-04-24T01:12:02;10.80;99.90
18794;DHT22;29610;49.022;12.114;2023-04-24T01:14:52;10.70;99.90
18794;DHT22;29610;49.022;12.114;2023-04-24T01:17:42;10.80;99.90
18794;DHT22;29610;49.022;12.114;2023-04-24T01:20:31;10.70;99.90
18794;DHT22;29610;49.022;12.114;2023-04-24T01:23:25;10.70;99.90
18794;DHT22;29610;49.022;12.114;2023-04-24T01:26:16;10.70;99.90
18794;DHT22;29610;49.022;12.114;2023-04-24T01:29:07;10.60;99.90
18794;DHT22;29610;49.022;12.114;2023-04-24T01:31:57;10.60;99.90
18794;DHT22;29610;49.022;12.114;2023-04-24T01:34:56;10.60;99.90
18794;DHT22;29610;49.022;12.114;2023-04-24T01:37:45;10.70;99.90
18794;DHT22;29610;49.022;12.114;2023-04-24T01:40:35;10.70;99.90
18794;DHT22;29610;49.022;12.114;2023-04-24T01:43:24;10.80;99.90
18794;DHT22;29610;49.022;12.114;2023-04-24T01:46:14;10.80;99.90
18794;DHT22;29610;49.022;12.114;2023-04-24T01:49:03;10.80;99.90
18794;DHT22;29610;49.022;12.114;2023-04-24T01:51:53;10.90;99.90
18794;DHT22;29610;49.022;12.114;2023-04-24T01:54:41;10.90;99.90
18794;DHT22;29610;49.022;12.114;2023-04-24T01:57:32;10.90;99.90
18794;DHT22;29610;49.022;12.114;2023-04-24T02:00:22;10.80;99.90
18794;DHT22;29610;49.022;12.114;2023-04-24T02:03:13;10.70;99.90
18794;DHT22;29610;49.022;12.114;2023-04-24T02:06:02;10.70;99.90
18794;DHT22;29610;49.022;12.114;2023-04-24T02:08:51;10.70;99.90
18794;DHT22;29610;49.022;12.114;2023-04-24T02:11:42;10.60;99.90
18794;DHT22;29610;49.022;12.114;2023-04-24T02:14:32;10.60;99.90
18794;DHT22;29610;49.022;12.114;2023-04-24T02:17:21;10.60;99.90
18794;DHT22;29610;49.022;12.114;2023-04-24T02:20:10;10.60;99.90
18794;DHT22;29610;49.022;12.114;2023-04-24T02:22:59;10.50;99.90
18794;DHT22;29610;49.022;12.114;2023-04-24T02:25:48;10.50;99.90
18794;DHT22;29610;49.022;12.114;2023-04-24T02:28:37;10.50;99.90
18794;DHT22;29610;49.022;12.114;2023-04-24T02:31:27;10.20;99.90
18794;DHT22;29610;49.022;12.114;2023-04-24T02:34:16;10.30;99.90
18794;DHT22;29610;49.022;12.114;2023-04-24T02:37:05;10.40;99.90
18794;DHT22;29610;49.022;12.114;2023-04-24T02:39:56;10.30;99.90
18794;DHT22;29610;49.022;12.114;2023-04-24T02:42:45;10.40;99.90
18794;DHT22;29610;49.022;12.114;2023-04-24T02:45:34;10.40;99.90
18794;DHT22;29610;49.022;12.114;2023-04-24T02:48:25;10.30;99.90
18794;DHT22;29610;49.022;12.114;2023-04-24T02:51:14;10.30;99.90
18794;DHT22;29610;49.022;12.114;2023-04-24T02:54:03;10.20;99.90
18794;DHT22;29610;49.022;12.114;2023-04-24T02:56:52;10.20;99.90
18794;DHT22;29610;49.022;12.114;2023-04-24T02:59:41;10.20;99.90
18794;DHT22;29610;49.022;12.114;2023-04-24T03:02:30;10.20;99.90
18794;DHT22;29610;49.022;12.114;2023-04-24T03:05:21;10.20;99.90
18794;DHT22;29610;49.022;12.114;2023-04-24T03:08:10;10.20;99.90
18794;DHT22;29610;49.022;12.114;2023-04-24T03:10:59;10.20;99.90
18794;DHT22;29610;49.022;12.114;2023-04-24T03:13:48;10.20;99.90
18794;DHT22;29610;49.022;12.114;2023-04-24T03:16:37;10.20;99.90
18794;DHT22;29610;49.022;12.114;2023-04-24T03:19:26;10.10;99.90
18794;DHT22;29610;49.022;12.114;2023-04-24T03:22:25;10.10;99.90
18794;DHT22;29610;49.022;12.114;2023-04-24T03:25:16;10.10;99.90
18794;DHT22;29610;49.022;12.114;2023-04-24T03:28:05;10.10;99.90
18794;DHT22;29610;49.022;12.114;2023-04-24T03:31:00;10.00;99.90
18794;DHT22;29610;49.022;12.114;2023-04-24T03:33:53;10.00;99.90
18794;DHT22;29610;49.022;12.114;2023-04-24T03:36:41;10.00;99.90
18794;DHT22;29610;49.022;12.114;2023-04-24T03:39:33;10.00;99.90
18794;DHT22;29610;49.022;12.114;2023-04-24T03:42:22;10.00;99.90
18794;DHT22;29610;49.022;12.114;2023-04-24T03:45:15;10.00;99.90
18794;DHT22;29610;49.022;12.114;2023-04-24T03:48:07;10.00;99.90
18794;DHT22;29610;49.022;12.114;2023-04-24T03:50:57;10.00;99.90
18794;DHT22;29610;49.022;12.114;2023-04-24T03:53:46;10.00;99.90
18794;DHT22;29610;49.022;12.114;2023-04-24T03:56:39;10.00;99.90
18794;DHT22;29610;49.022;12.114;2023-04-24T03:59:31;10.00;99.90
18794;DHT22;29610;49.022;12.114;2023-04-24T04:02:30;10.00;99.90
18794;DHT22;29610;49.022;12.114;2023-04-24T04:05:19;10.00;99.90
18794;DHT22;29610;49.022;12.114;2023-04-24T04:08:09;10.00;99.90
18794;DHT22;29610;49.022;12.114;2023-04-24T04:10:58;10.00;99.90
18794;DHT22;29610;49.022;12.114;2023-04-24T04:13:50;10.00;99.90
18794;DHT22;29610;49.022;12.114;2023-04-24T04:16:41;10.10;99.90
18794;DHT22;29610;49.022;12.114;2023-04-24T04:19:31;10.10;99.90
18794;DHT22;29610;49.022;12.114;2023-04-24T04:22:20;10.10;99.90
18794;DHT22;29610;49.022;12.114;2023-04-24T04:25:11;10.10;99.90
18794;DHT22;29610;49.022;12.114;2023-04-24T04:28:01;10.10;99.90
18794;DHT22;29610;49.022;12.114;2023-04-24T04:30:51;10.10;99.90
18794;DHT22;29610;49.022;12.114;2023-04-24T04:33:42;10.10;99.90
18794;DHT22;29610;49.022;12.114;2023-04-24T04:36:32;10.10;99.90
18794;DHT22;29610;49.022;12.114;2023-04-24T04:39:50;10.10;99.90
18794;DHT22;29610;49.022;12.114;2023-04-24T04:42:43;10.20;99.90
18794;DHT22;29610;49.022;12.114;2023-04-24T04:45:34;10.20;99.90
18794;DHT22;29610;49.022;12.114;2023-04-24T04:48:40;10.20;99.90
18794;DHT22;29610;49.022;12.114;2023-04-24T04:51:30;10.20;99.90
18794;DHT22;29610;49.022;12.114;2023-04-24T04:54:20;10.20;99.90
18794;DHT22;29610;49.022;12.114;2023-04-24T04:57:09;10.20;99.90
18794;DHT22;29610;49.022;12.114;2023-04-24T04:59:59;10.30;99.90
18794;DHT22;29610;49.022;12.114;2023-04-24T05:03:01;10.30;99.90
18794;DHT22;29610;49.022;12.114;2023-04-24T05:06:11;10.30;99.90
18794;DHT22;29610;49.022;12.114;2023-04-24T05:09:01;10.30;99.90
18794;DHT22;29610;49.022;12.114;2023-04-24T05:12:01;10.30;99.90
18794;DHT22;29610;49.022;12.114;2023-04-24T05:14:55;10.40;99.90
18794;DHT22;29610;49.022;12.114;2023-04-24T05:17:45;10.40;99.90
18794;DHT22;29610;49.022;12.114;2023-04-24T05:20:34;10.40;99.90
18794;DHT22;29610;49.022;12.114;2023-04-24T05:23:27;10.40;99.90
18794;DHT22;29610;49.022;12.114;2023-04-24T05:26:18;10.50;99.90
18794;DHT22;29610;49.022;12.114;2023-04-24T05:29:07;10.50;99.90
18794;DHT22;29610;49.022;12.114;2023-04-24T05:31:56;10.50;99.90
18794;DHT22;29610;49.022;12.114;2023-04-24T05:34:46;10.50;99.90
18794;DHT22;29610;49.022;12.114;2023-04-24T05:37:35;10.60;99.90
18794;DHT22;29610;49.022;12.114;2023-04-24T05:40:29;10.60;99.90
18794;DHT22;29610;49.022;12.114;2023-04-24T05:43:18;10.70;99.90
18794;DHT22;29610;49.022;12.114;2023-04-24T05:46:07;10.80;99.90
18794;DHT22;29610;49.022;12.114;2023-04-24T05:48:59;10.80;99.90
18794;DHT22;29610;49.022;12.114;2023-04-24T05:51:51;10.90;99.90
18794;DHT22;29610;49.022;12.114;2023-04-24T05:54:40;10.90;99.90
18794;DHT22;29610;49.022;12.114;2023-04-24T05:57:35;10.90;99.90
18794;DHT22;29610;49.022;12.114;2023-04-24T06:00:24;10.90;99.90
18794;DHT22;29610;49.022;12.114;2023-04-24T06:03:20;11.00;99.90
18794;DHT22;29610;49.022;12.114;2023-04-24T06:06:10;11.20;99.90
18794;DHT22;29610;49.022;12.114;2023-04-24T06:09:02;11.20;99.90
18794;DHT22;29610;49.022;12.114;2023-04-24T06:11:51;11.30;99.90
18794;DHT22;29610;49.022;12.114;2023-04-24T06:14:45;11.40;99.90
18794;DHT22;29610;49.022;12.114;2023-04-24T06:17:46;11.40;99.90
18794;DHT22;29610;49.022;12.114;2023-04-24T06:20:37;11.50;99.90
18794;DHT22;29610;49.022;12.114;2023-04-24T06:23:30;11.60;99.90
18794;DHT22;29610;49.022;12.114;2023-04-24T06:26:21;11.80;99.90
18794;DHT22;29610;49.022;12.114;2023-04-24T06:29:12;11.90;99.90
18794;DHT22;29610;49.022;12.114;2023-04-24T06:32:02;11.90;99.90
18794;DHT22;29610;49.022;12.114;2023-04-24T06:34:52;12.00;99.90
18794;DHT22;29610;49.022;12.114;2023-04-24T06:37:42;11.90;99.90
18794;DHT22;29610;49.022;12.114;2023-04-24T06:40:35;12.10;99.90
18794;DHT22;29610;49.022;12.114;2023-04-24T06:43:24;12.20;99.90
18794;DHT22;29610;49.022;12.114;2023-04-24T06:46:13;12.30;99.90
18794;DHT22;29610;49.022;12.114;2023-04-24T06:49:03;12.40;99.90
18794;DHT22;29610;49.022;12.114;2023-04-24T06:51:52;12.50;99.90
18794;DHT22;29610;49.022;12.114;2023-04-24T06:54:41;12.60;99.90
18794;DHT22;29610;49.022;12.114;2023-04-24T06:57:31;12.90;99.90
18794;DHT22;29610;49.022;12.114;2023-04-24T07:00:21;13.30;99.90
18794;DHT22;29610;49.022;12.114;2023-04-24T07:03:11;13.50;99.90
18794;DHT22;29610;49.022;12.114;2023-04-24T07:06:02;13.60;99.90
18794;DHT22;29610;49.022;12.114;2023-04-24T07:08:53;13.80;99.90
18794;DHT22;29610;49.022;12.114;2023-04-24T07:11:43;13.60;99.90
18794;DHT22;29610;49.022;12.114;2023-04-24T07:14:32;13.70;99.90
18794;DHT22;29610;49.022;12.114;2023-04-24T07:17:22;13.70;99.90
18794;DHT22;29610;49.022;12.114;2023-04-24T07:20:11;13.80;99.90
18794;DHT22;29610;49.022;12.114;2023-04-24T07:23:03;14.00;99.90
18794;DHT22;29610;49.022;12.114;2023-04-24T07:25:52;14.20;99.90
18794;DHT22;29610;49.022;12.114;2023-04-24T07:28:41;14.50;99.90
18794;DHT22;29610;49.022;12.114;2023-04-24T07:31:30;14.60;99.90
18794;DHT22;29610;49.022;12.114;2023-04-24T07:34:20;14.70;99.90
18794;DHT22;29610;49.022;12.114;2023-04-24T07:37:09;14.90;99.90
18794;DHT22;29610;49.022;12.114;2023-04-24T07:39:59;14.70;99.90
18794;DHT22;29610;49.022;12.114;2023-04-24T07:42:48;14.80;99.90
18794;DHT22;29610;49.022;12.114;2023-04-24T07:45:38;14.90;99.90
18794;DHT22;29610;49.022;12.114;2023-04-24T07:48:27;15.00;99.90
18794;DHT22;29610;49.022;12.114;2023-04-24T07:51:16;15.10;99.90
18794;DHT22;29610;49.022;12.114;2023-04-24T07:54:05;15.40;99.90
18794;DHT22;29610;49.022;12.114;2023-04-24T07:56:55;15.70;99.90
18794;DHT22;29610;49.022;12.114;2023-04-24T07:59:44;16.00;99.40
18794;DHT22;29610;49.022;12.114;2023-04-24T08:02:34;16.00;98.50
18794;DHT22;29610;49.022;12.114;2023-04-24T08:05:23;16.00;98.20
18794;DHT22;29610;49.022;12.114;2023-04-24T08:08:14;15.90;98.30
18794;DHT22;29610;49.022;12.114;2023-04-24T08:11:03;15.90;97.50
18794;DHT22;29610;49.022;12.114;2023-04-24T08:13:54;15.80;97.90
18794;DHT22;29610;49.022;12.114;2023-04-24T08:16:43;15.90;98.20
18794;DHT22;29610;49.022;12.114;2023-04-24T08:19:33;16.30;97.50
18794;DHT22;29610;49.022;12.114;2023-04-24T08:22:22;16.60;97.10
18794;DHT22;29610;49.022;12.114;2023-04-24T08:25:11;17.10;96.40
18794;DHT22;29610;49.022;12.114;2023-04-24T08:28:02;17.20;94.00
18794;DHT22;29610;49.022;12.114;2023-04-24T08:30:53;16.80;93.40
18794;DHT22;29610;49.022;12.114;2023-04-24T08:33:42;17.10;93.70
18794;DHT22;29610;49.022;12.114;2023-04-24T08:36:33;17.40;94.00
18794;DHT22;29610;49.022;12.114;2023-04-24T08:39:33;16.90;91.80
18794;DHT22;29610;49.022;12.114;2023-04-24T08:42:23;15.40;92.50
18794;DHT22;29610;49.022;12.114;2023-04-24T08:45:12;13.60;94.60
18794;DHT22;29610;49.022;12.114;2023-04-24T08:48:04;12.60;96.60
18794;DHT22;29610;49.022;12.114;2023-04-24T08:51:10;12.00;97.70
18794;DHT22;29610;49.022;12.114;2023-04-24T08:53:59;11.80;99.40
18794;DHT22;29610;49.022;12.114;2023-04-24T08:56:50;11.70;99.90
18794;DHT22;29610;49.022;12.114;2023-04-24T08:59:46;11.70;99.90
18794;DHT22;29610;49.022;12.114;2023-04-24T09:02:35;11.90;99.90
18794;DHT22;29610;49.022;12.114;2023-04-24T09:05:27;12.50;99.90
18794;DHT22;29610;49.022;12.114;2023-04-24T09:08:18;12.90;99.90
18794;DHT22;29610;49.022;12.114;2023-04-24T09:11:08;13.10;99.60
18794;DHT22;29610;49.022;12.114;2023-04-24T09:13:58;13.10;99.30
18794;DHT22;29610;49.022;12.114;2023-04-24T09:16:49;12.90;99.60
18794;DHT22;29610;49.022;12.114;2023-04-24T09:19:39;13.00;99.90
18794;DHT22;29610;49.022;12.114;2023-04-24T09:22:31;13.10;99.80
18794;DHT22;29610;49.022;12.114;2023-04-24T09:25:20;13.50;99.80
18794;DHT22;29610;49.022;12.114;2023-04-24T09:28:09;14.10;99.20
18794;DHT22;29610;49.022;12.114;2023-04-24T09:31:06;14.70;98.00
18794;DHT22;29610;49.022;12.114;2023-04-24T09:33:57;15.20;97.60
18794;DHT22;29610;49.022;12.114;2023-04-24T09:36:50;15.50;95.20
18794;DHT22;29610;49.022;12.114;2023-04-24T09:39:40;15.50;93.60
18794;DHT22;29610;49.022;12.114;2023-04-24T09:42:31;15.20;92.80
18794;DHT22;29610;49.022;12.114;2023-04-24T09:45:20;15.00;92.90
18794;DHT22;29610;49.022;12.114;2023-04-24T09:48:10;14.70;92.90
18794;DHT22;29610;49.022;12.114;2023-04-24T09:51:00;14.80;94.00
18794;DHT22;29610;49.022;12.114;2023-04-24T09:53:52;15.30;92.80
18794;DHT22;29610;49.022;12.114;2023-04-24T09:56:46;15.80;92.50
18794;DHT22;29610;49.022;12.114;2023-04-24T09:59:42;16.20;90.70
18794;DHT22;29610;49.022;12.114;2023-04-24T10:02:34;16.70;88.50
18794;DHT22;29610;49.022;12.114;2023-04-24T10:05:26;16.70;90.10
18794;DHT22;29610;49.022;12.114;2023-04-24T10:08:17;16.60;87.90
18794;DHT22;29610;49.022;12.114;2023-04-24T10:11:07;16.80;88.10
18794;DHT22;29610;49.022;12.114;2023-04-24T10:13:59;16.40;86.00
18794;DHT22;29610;49.022;12.114;2023-04-24T10:16:50;15.70;84.20
18794;DHT22;29610;49.022;12.114;2023-04-24T10:19:43;14.50;88.30
18794;DHT22;29610;49.022;12.114;2023-04-24T10:22:35;14.00;89.60
18794;DHT22;29610;49.022;12.114;2023-04-24T10:25:28;14.00;90.40
18794;DHT22;29610;49.022;12.114;2023-04-24T10:28:19;14.00;90.00
18794;DHT22;29610;49.022;12.114;2023-04-24T10:31:10;14.40;90.00
18794;DHT22;29610;49.022;12.114;2023-04-24T10:34:02;14.40;89.00
18794;DHT22;29610;49.022;12.114;2023-04-24T10:36:53;14.50;88.20
18794;DHT22;29610;49.022;12.114;2023-04-24T10:39:47;14.40;87.50
18794;DHT22;29610;49.022;12.114;2023-04-24T10:42:40;14.20;85.50
18794;DHT22;29610;49.022;12.114;2023-04-24T10:45:30;14.30;86.70
18794;DHT22;29610;49.022;12.114;2023-04-24T10:48:26;14.50;85.30
18794;DHT22;29610;49.022;12.114;2023-04-24T10:51:15;14.80;86.30
18794;DHT22;29610;49.022;12.114;2023-04-24T10:54:22;15.00;83.90
18794;DHT22;29610;49.022;12.114;2023-04-24T10:57:28;15.50;83.00
18794;DHT22;29610;49.022;12.114;2023-04-24T11:00:22;15.90;79.90
18794;DHT22;29610;49.022;12.114;2023-04-24T11:03:27;16.30;78.20
18794;DHT22;29610;49.022;12.114;2023-04-24T11:06:28;16.70;77.70
18794;DHT22;29610;49.022;12.114;2023-04-24T11:09:20;17.10;75.10
18794;DHT22;29610;49.022;12.114;2023-04-24T11:12:11;16.80;77.60
18794;DHT22;29610;49.022;12.114;2023-04-24T11:15:02;16.40;75.90
18794;DHT22;29610;49.022;12.114;2023-04-24T11:17:55;15.80;76.50
18794;DHT22;29610;49.022;12.114;2023-04-24T11:20:46;15.60;76.80
18794;DHT22;29610;49.022;12.114;2023-04-24T11:23:36;15.30;80.50
18794;DHT22;29610;49.022;12.114;2023-04-24T11:26:25;15.60;80.20
18794;DHT22;29610;49.022;12.114;2023-04-24T11:29:20;15.90;80.00
18794;DHT22;29610;49.022;12.114;2023-04-24T11:32:15;16.10;78.50
18794;DHT22;29610;49.022;12.114;2023-04-24T11:35:15;16.00;77.20
18794;DHT22;29610;49.022;12.114;2023-04-24T11:38:10;14.70;77.70
18794;DHT22;29610;49.022;12.114;2023-04-24T11:41:11;13.90;81.80
18794;DHT22;29610;49.022;12.114;2023-04-24T11:44:02;13.60;85.10
18794;DHT22;29610;49.022;12.114;2023-04-24T11:46:56;13.40;86.20
18794;DHT22;29610;49.022;12.114;2023-04-24T11:49:46;13.20;87.20
18794;DHT22;29610;49.022;12.114;2023-04-24T11:52:38;13.20;87.90
18794;DHT22;29610;49.022;12.114;2023-04-24T11:55:29;13.50;85.10
18794;DHT22;29610;49.022;12.114;2023-04-24T11:58:20;13.90;85.50
18794;DHT22;29610;49.022;12.114;2023-04-24T12:01:10;14.50;83.10
18794;DHT22;29610;49.022;12.114;2023-04-24T12:03:59;15.20;81.20
18794;DHT22;29610;49.022;12.114;2023-04-24T12:07:02;15.90;84.30
18794;DHT22;29610;49.022;12.114;2023-04-24T12:09:57;17.20;77.10
18794;DHT22;29610;49.022;12.114;2023-04-24T12:12:50;18.20;73.10
18794;DHT22;29610;49.022;12.114;2023-04-24T12:15:40;18.30;73.60
18794;DHT22;29610;49.022;12.114;2023-04-24T12:18:29;18.60;70.50
18794;DHT22;29610;49.022;12.114;2023-04-24T12:21:19;18.10;70.80
18794;DHT22;29610;49.022;12.114;2023-04-24T12:24:10;17.50;71.90
18794;DHT22;29610;49.022;12.114;2023-04-24T12:26:59;17.10;70.80
18794;DHT22;29610;49.022;12.114;2023-04-24T12:29:55;16.40;73.60
18794;DHT22;29610;49.022;12.114;2023-04-24T12:32:46;16.10;73.20
18794;DHT22;29610;49.022;12.114;2023-04-24T12:35:36;16.20;74.00
18794;DHT22;29610;49.022;12.114;2023-04-24T12:38:29;16.40;72.80
18794;DHT22;29610;49.022;12.114;2023-04-24T12:41:18;16.60;72.20
18794;DHT22;29610;49.022;12.114;2023-04-24T12:44:10;17.20;74.00
18794;DHT22;29610;49.022;12.114;2023-04-24T12:47:01;18.50;68.70
18794;DHT22;29610;49.022;12.114;2023-04-24T12:49:51;19.20;68.70
18794;DHT22;29610;49.022;12.114;2023-04-24T12:52:40;19.40;65.00
18794;DHT22;29610;49.022;12.114;2023-04-24T12:55:31;19.10;64.00
18794;DHT22;29610;49.022;12.114;2023-04-24T12:58:20;19.30;65.60
18794;DHT22;29610;49.022;12.114;2023-04-24T13:01:09;19.60;66.20
18794;DHT22;29610;49.022;12.114;2023-04-24T13:04:00;19.30;61.20
18794;DHT22;29610;49.022;12.114;2023-04-24T13:06:50;17.80;63.20
18794;DHT22;29610;49.022;12.114;2023-04-24T13:09:39;16.70;61.80
18794;DHT22;29610;49.022;12.114;2023-04-24T13:12:28;15.80;63.90
18794;DHT22;29610;49.022;12.114;2023-04-24T13:15:17;15.00;66.70
18794;DHT22;29610;49.022;12.114;2023-04-24T13:18:06;14.70;68.90
18794;DHT22;29610;49.022;12.114;2023-04-24T13:20:57;14.30;68.90
18794;DHT22;29610;49.022;12.114;2023-04-24T13:23:45;14.10;69.60
18794;DHT22;29610;49.022;12.114;2023-04-24T13:26:35;13.80;70.30
18794;DHT22;29610;49.022;12.114;2023-04-24T13:29:24;13.90;69.90
18794;DHT22;29610;49.022;12.114;2023-04-24T13:32:14;14.40;70.00
18794;DHT22;29610;49.022;12.114;2023-04-24T13:35:04;15.00;70.50
18794;DHT22;29610;49.022;12.114;2023-04-24T13:37:55;15.30;68.50
18794;DHT22;29610;49.022;12.114;2023-04-24T13:40:44;15.30;67.50
18794;DHT22;29610;49.022;12.114;2023-04-24T13:43:33;15.30;67.10
18794;DHT22;29610;49.022;12.114;2023-04-24T13:46:23;15.20;66.80
18794;DHT22;29610;49.022;12.114;2023-04-24T13:49:14;15.80;64.60
18794;DHT22;29610;49.022;12.114;2023-04-24T13:52:04;16.00;61.70
18794;DHT22;29610;49.022;12.114;2023-04-24T13:54:55;16.10;61.20
18794;DHT22;29610;49.022;12.114;2023-04-24T13:57:44;16.20;62.30
18794;DHT22;29610;49.022;12.114;2023-04-24T14:00:33;16.20;62.40
18794;DHT22;29610;49.022;12.114;2023-04-24T14:03:22;16.30;61.40
18794;DHT22;29610;49.022;12.114;2023-04-24T14:06:12;15.70;61.80
18794;DHT22;29610;49.022;12.114;2023-04-24T14:09:01;15.70;65.40
18794;DHT22;29610;49.022;12.114;2023-04-24T14:11:52;15.90;63.90
18794;DHT22;29610;49.022;12.114;2023-04-24T14:14:41;15.30;66.20
18794;DHT22;29610;49.022;12.114;2023-04-24T14:17:30;14.90;65.80
18794;DHT22;29610;49.022;12.114;2023-04-24T14:20:19;14.40;68.40
18794;DHT22;29610;49.022;12.114;2023-04-24T14:23:09;13.90;69.90
18794;DHT22;29610;49.022;12.114;2023-04-24T14:25:58;13.60;72.00
18794;DHT22;29610;49.022;12.114;2023-04-24T14:28:49;13.40;73.60
18794;DHT22;29610;49.022;12.114;2023-04-24T14:31:40;13.00;78.50
18794;DHT22;29610;49.022;12.114;2023-04-24T14:34:29;12.90;78.30
18794;DHT22;29610;49.022;12.114;2023-04-24T14:37:19;13.10;78.30
18794;DHT22;29610;49.022;12.114;2023-04-24T14:40:10;13.40;75.80
18794;DHT22;29610;49.022;12.114;2023-04-24T14:43:19;13.40;76.30
18794;DHT22;29610;49.022;12.114;2023-04-24T14:46:10;13.60;76.50
18794;DHT22;29610;49.022;12.114;2023-04-24T14:49:00;13.50;74.10
18794;DHT22;29610;49.022;12.114;2023-04-24T14:51:49;13.30;73.90
18794;DHT22;29610;49.022;12.114;2023-04-24T14:54:38;13.20;72.90
18794;DHT22;29610;49.022;12.114;2023-04-24T14:57:27;13.10;72.70
18794;DHT22;29610;49.022;12.114;2023-04-24T15:00:18;12.70;72.20
18794;DHT22;29610;49.022;12.114;2023-04-24T15:03:09;12.70;73.80
18794;DHT22;29610;49.022;12.114;2023-04-24T15:05:59;12.90;73.00
18794;DHT22;29610;49.022;12.114;2023-04-24T15:08:49;13.10;72.80
18794;DHT22;29610;49.022;12.114;2023-04-24T15:11:38;13.30;71.50
18794;DHT22;29610;49.022;12.114;2023-04-24T15:14:28;13.70;70.70
18794;DHT22;29610;49.022;12.114;2023-04-24T15:17:18;14.10;69.80
18794;DHT22;29610;49.022;12.114;2023-04-24T15:20:09;14.00;69.60
18794;DHT22;29610;49.022;12.114;2023-04-24T15:22:58;13.60;69.50
18794;DHT22;29610;49.022;12.114;2023-04-24T15:25:47;13.40;70.70
18794;DHT22;29610;49.022;12.114;2023-04-24T15:28:36;13.40;72.60
18794;DHT22;29610;49.022;12.114;2023-04-24T15:31:25;13.50;72.70
18794;DHT22;29610;49.022;12.114;2023-04-24T15:34:14;13.50;71.50
18794;DHT22;29610;49.022;12.114;2023-04-24T15:37:05;13.70;72.90
18794;DHT22;29610;49.022;12.114;2023-04-24T15:39:54;13.60;71.20
18794;DHT22;29610;49.022;12.114;2023-04-24T15:42:43;13.70;71.40
18794;DHT22;29610;49.022;12.114;2023-04-24T15:45:32;14.00;71.70
18794;DHT22;29610;49.022;12.114;2023-04-24T15:48:21;14.20;71.10
18794;DHT22;29610;49.022;12.114;2023-04-24T15:51:10;14.40;70.00
18794;DHT22;29610;49.022;12.114;2023-04-24T15:54:01;14.40;70.20
18794;DHT22;29610;49.022;12.114;2023-04-24T15:56:50;14.40;71.00
18794;DHT22;29610;49.022;12.114;2023-04-24T15:59:39;14.30;69.90
18794;DHT22;29610;49.022;12.114;2023-04-24T16:02:28;14.40;68.40
18794;DHT22;29610;49.022;12.114;2023-04-24T16:05:17;13.90;67.60
18794;DHT22;29610;49.022;12.114;2023-04-24T16:08:12;13.60;68.50
18794;DHT22;29610;49.022;12.114;2023-04-24T16:11:03;13.60;69.30
18794;DHT22;29610;49.022;12.114;2023-04-24T16:13:52;13.80;69.60
18794;DHT22;29610;49.022;12.114;2023-04-24T16:16:41;13.80;68.80
18794;DHT22;29610;49.022;12.114;2023-04-24T16:19:30;13.60;68.10
18794;DHT22;29610;49.022;12.114;2023-04-24T16:22:20;13.60;69.90
18794;DHT22;29610;49.022;12.114;2023-04-24T16:25:10;13.70;70.40
18794;DHT22;29610;49.022;12.114;2023-04-24T16:28:01;13.80;69.50
18794;DHT22;29610;49.022;12.114;2023-04-24T16:30:50;13.40;69.40
18794;DHT22;29610;49.022;12.114;2023-04-24T16:33:39;13.20;71.00
18794;DHT22;29610;49.022;12.114;2023-04-24T16:36:29;13.00;72.40
18794;DHT22;29610;49.022;12.114;2023-04-24T16:39:18;12.80;73.80
18794;DHT22;29610;49.022;12.114;2023-04-24T16:42:10;12.40;72.70
18794;DHT22;29610;49.022;12.114;2023-04-24T16:45:05;12.20;74.20
18794;DHT22;29610;49.022;12.114;2023-04-24T16:47:56;12.10;74.50
18794;DHT22;29610;49.022;12.114;2023-04-24T16:50:45;12.20;73.20
18794;DHT22;29610;49.022;12.114;2023-04-24T16:53:35;12.30;72.40
18794;DHT22;29610;49.022;12.114;2023-04-24T16:56:24;12.40;71.50
18794;DHT22;29610;49.022;12.114;2023-04-24T16:59:25;12.40;70.50
18794;DHT22;29610;49.022;12.114;2023-04-24T17:02:17;12.50;70.50
18794;DHT22;29610;49.022;12.114;2023-04-24T17:05:06;12.60;71.00
18794;DHT22;29610;49.022;12.114;2023-04-24T17:07:56;12.50;71.90
18794;DHT22;29610;49.022;12.114;2023-04-24T17:10:45;12.30;72.30
18794;DHT22;29610;49.022;12.114;2023-04-24T17:13:34;12.10;73.00
18794;DHT22;29610;49.022;12.114;2023-04-24T17:16:24;12.00;74.10
18794;DHT22;29610;49.022;12.114;2023-04-24T17:19:15;11.80;75.50
18794;DHT22;29610;49.022;12.114;2023-04-24T17:22:04;11.60;75.50
18794;DHT22;29610;49.022;12.114;2023-04-24T17:24:53;11.50;76.80
18794;DHT22;29610;49.022;12.114;2023-04-24T17:27:43;11.30;77.10
18794;DHT22;29610;49.022;12.114;2023-04-24T17:30:32;11.10;77.70
18794;DHT22;29610;49.022;12.114;2023-04-24T17:33:22;10.90;79.70
18794;DHT22;29610;49.022;12.114;2023-04-24T17:36:13;10.80;80.00
18794;DHT22;29610;49.022;12.114;2023-04-24T17:39:03;10.80;80.30
18794;DHT22;29610;49.022;12.114;2023-04-24T17:41:53;10.80;80.90